Time;durP1;ratioP1;P1;durP2;ratioP2;P2;SDS_P1;SDS_P2;PMS_P1;PMS_P2;Temp;Humidity;BMP_temperature;BMP_pressure;BME280_temperature;BME280_humidity;BME280_pressure;Samples;Min_cycle;Max_cycle;Signal;HPM_P1;HPM_P2
2024/02/03 00:01:46;;;;;;;11.00;10.30;;;26.10;1.00;;;;;;2612294;54;20298;-58
2024/02/03 00:04:12;;;;;;;10.80;10.10;;;26.00;1.00;;;;;;2612153;47;20258;-59
2024/02/03 00:06:38;;;;;;;10.40;9.70;;;25.90;1.00;;;;;;2612923;31;20645;-58
2024/02/03 00:09:07;;;;;;;10.27;9.53;;;25.90;1.00;;;;;;2612680;54;21409;-58
2024/02/03 00:11:33;;;;;;;10.17;9.53;;;25.90;1.00;;;;;;2610922;47;20169;-67
2024/02/03 00:14:00;;;;;;;10.53;9.80;;;25.90;1.00;;;;;;2609567;54;20982;-67
2024/02/03 00:16:26;;;;;;;10.07;9.43;;;25.80;1.00;;;;;;2611444;47;20424;-67
2024/02/03 00:18:52;;;;;;;10.30;9.60;;;25.70;1.00;;;;;;2609383;54;20495;-68
2024/02/03 00:21:18;;;;;;;10.23;9.63;;;25.70;1.00;;;;;;2611855;47;20430;-67
2024/02/03 00:23:45;;;;;;;9.33;8.73;;;25.70;1.00;;;;;;2609600;47;20459;-67
2024/02/03 00:26:11;;;;;;;9.17;8.57;;;25.60;1.00;;;;;;2610063;39;21040;-67
2024/02/03 00:28:37;;;;;;;9.87;9.27;;;25.60;1.00;;;;;;2609866;54;21007;-67
2024/02/03 00:31:03;;;;;;;9.40;8.80;;;25.60;1.00;;;;;;2610348;54;20727;-60
2024/02/03 00:33:29;;;;;;;9.70;9.10;;;25.60;1.00;;;;;;2609594;54;20396;-61
2024/02/03 00:35:55;;;;;;;9.70;9.10;;;25.50;1.00;;;;;;2612431;47;20421;-61
2024/02/03 00:38:21;;;;;;;9.20;8.60;;;25.50;1.00;;;;;;2610481;54;20516;-60
2024/02/03 00:40:47;;;;;;;9.40;8.80;;;25.50;1.00;;;;;;2610428;47;20437;-59
2024/02/03 00:43:16;;;;;;;8.97;8.27;;;25.40;1.00;;;;;;2611850;54;20387;-55
2024/02/03 00:45:43;;;;;;;9.30;8.70;;;25.40;1.00;;;;;;2610068;47;20206;-57
2024/02/03 00:48:09;;;;;;;9.23;8.63;;;25.40;1.00;;;;;;2611388;39;21347;-58
2024/02/03 00:50:35;;;;;;;9.67;9.07;;;25.40;1.00;;;;;;2610179;47;20490;-56
2024/02/03 00:53:01;;;;;;;8.90;8.30;;;25.40;1.00;;;;;;2609020;54;20980;-55
2024/02/03 00:55:26;;;;;;;8.13;7.60;;;25.30;1.00;;;;;;2609957;54;20165;-58
2024/02/03 00:57:53;;;;;;;7.70;7.20;;;25.20;1.00;;;;;;2609718;54;20166;-57
2024/02/03 01:00:23;;;;;;;8.27;7.67;;;25.20;1.00;;;;;;2609148;54;20185;-56
2024/02/03 01:02:49;;;;;;;8.30;7.63;;;25.20;1.00;;;;;;2608631;54;20427;-56
2024/02/03 01:05:15;;;;;;;7.70;7.20;;;25.20;1.00;;;;;;2611215;39;20481;-56
2024/02/03 01:07:41;;;;;;;8.30;7.80;;;25.20;1.00;;;;;;2613028;54;20484;-56
2024/02/03 01:10:07;;;;;;;8.00;7.40;;;25.10;1.00;;;;;;2612435;47;20995;-57
2024/02/03 01:12:35;;;;;;;7.70;7.20;;;25.10;1.00;;;;;;2612298;54;20168;-57
2024/02/03 01:15:02;;;;;;;8.33;7.83;;;25.10;1.00;;;;;;2613123;54;20405;-57
2024/02/03 01:17:28;;;;;;;8.00;7.50;;;25.00;1.00;;;;;;2611967;54;20485;-56
2024/02/03 01:19:54;;;;;;;7.60;7.10;;;25.00;1.00;;;;;;2612904;54;20419;-57
2024/02/03 01:22:23;;;;;;;7.57;7.07;;;25.00;1.00;;;;;;2612855;54;20173;-53
2024/02/03 01:24:48;;;;;;;7.57;7.10;;;24.90;1.00;;;;;;2613668;39;20590;-52
2024/02/03 01:27:14;;;;;;;7.80;7.30;;;24.90;1.00;;;;;;2612412;39;20667;-54
2024/02/03 01:29:40;;;;;;;8.90;8.10;;;24.90;1.00;;;;;;2612694;54;20270;-54
2024/02/03 01:32:06;;;;;;;8.33;7.77;;;24.90;1.00;;;;;;2612974;54;20155;-53
2024/02/03 01:34:32;;;;;;;7.73;7.23;;;24.90;1.00;;;;;;2613300;54;20156;-53
2024/02/03 01:36:58;;;;;;;8.13;7.63;;;24.90;1.00;;;;;;2612275;54;20435;-52
2024/02/03 01:39:24;;;;;;;7.57;7.07;;;24.80;1.00;;;;;;2612872;51;20181;-53
2024/02/03 01:41:50;;;;;;;7.23;6.80;;;24.80;1.00;;;;;;2612440;54;20652;-58
2024/02/03 01:44:15;;;;;;;8.70;8.00;;;24.80;1.00;;;;;;2608849;54;20246;-59
2024/02/03 01:46:41;;;;;;;7.17;6.70;;;24.70;1.00;;;;;;2612564;54;20448;-58
2024/02/03 01:49:07;;;;;;;7.23;6.80;;;24.70;1.00;;;;;;2612471;54;20184;-57
2024/02/03 01:51:34;;;;;;;7.37;6.87;;;24.70;1.00;;;;;;2613006;54;20437;-57
2024/02/03 01:54:00;;;;;;;6.90;6.47;;;24.70;1.00;;;;;;2611765;54;20173;-58
2024/02/03 01:56:26;;;;;;;7.50;7.00;;;24.70;1.00;;;;;;2613405;54;20413;-58
2024/02/03 01:58:52;;;;;;;6.77;6.37;;;24.70;1.00;;;;;;2614916;31;20855;-57
2024/02/03 02:01:18;;;;;;;6.87;6.47;;;24.60;1.00;;;;;;2613974;54;20426;-57
2024/02/03 02:03:44;;;;;;;6.73;6.30;;;24.70;1.00;;;;;;2613807;47;20413;-54
2024/02/03 02:06:10;;;;;;;7.40;6.90;;;24.60;1.00;;;;;;2613254;54;20170;-57
2024/02/03 02:08:38;;;;;;;7.43;6.93;;;24.60;1.00;;;;;;2613823;54;20558;-58
2024/02/03 02:11:05;;;;;;;7.13;6.73;;;24.50;1.00;;;;;;2612804;54;20176;-59
2024/02/03 02:13:32;;;;;;;6.83;6.43;;;24.50;1.00;;;;;;2613695;54;20417;-59
2024/02/03 02:15:58;;;;;;;6.97;6.57;;;24.50;1.00;;;;;;2613897;39;20810;-56
2024/02/03 02:18:24;;;;;;;7.67;7.17;;;24.50;1.00;;;;;;2613753;54;20947;-55
2024/02/03 02:20:50;;;;;;;7.40;6.90;;;24.50;1.00;;;;;;2613884;39;20862;-56
2024/02/03 02:23:16;;;;;;;7.30;6.80;;;24.50;1.00;;;;;;2612826;54;20425;-56
2024/02/03 02:25:42;;;;;;;6.60;6.20;;;24.50;1.00;;;;;;2613266;54;20399;-57
2024/02/03 02:28:08;;;;;;;6.50;6.10;;;24.40;1.00;;;;;;2614107;54;20151;-56
2024/02/03 02:30:34;;;;;;;7.10;6.60;;;24.40;1.00;;;;;;2613116;54;20188;-57
2024/02/03 02:33:01;;;;;;;7.27;6.77;;;24.40;1.00;;;;;;2613838;39;20794;-56
2024/02/03 02:35:27;;;;;;;6.90;6.30;;;24.40;1.00;;;;;;2612541;54;20764;-58
2024/02/03 02:37:52;;;;;;;6.37;5.97;;;24.30;1.00;;;;;;2613542;54;20402;-55
2024/02/03 02:40:18;;;;;;;6.50;6.10;;;24.30;1.00;;;;;;2613774;54;20182;-58
2024/02/03 02:42:44;;;;;;;6.67;6.27;;;24.30;1.00;;;;;;2612979;54;20165;-57
2024/02/03 02:45:10;;;;;;;6.33;5.93;;;24.30;1.00;;;;;;2613092;54;20436;-56
2024/02/03 02:47:36;;;;;;;6.20;5.80;;;24.30;1.00;;;;;;2613491;47;20285;-57
2024/02/03 02:50:02;;;;;;;6.73;6.33;;;24.20;1.00;;;;;;2613109;54;20192;-57
2024/02/03 02:52:29;;;;;;;6.70;6.30;;;24.20;1.00;;;;;;2613110;54;20225;-57
2024/02/03 02:54:56;;;;;;;6.70;6.30;;;24.20;1.00;;;;;;2613683;47;20481;-58
2024/02/03 02:57:22;;;;;;;6.30;5.90;;;24.20;1.00;;;;;;2613216;47;20987;-58
2024/02/03 02:59:47;;;;;;;6.20;5.80;;;24.20;1.00;;;;;;2612757;54;20442;-58
2024/02/03 03:02:13;;;;;;;5.50;5.20;;;24.10;1.00;;;;;;2613708;54;20178;-57
2024/02/03 03:04:39;;;;;;;6.27;5.90;;;24.10;1.00;;;;;;2613372;47;20172;-58
2024/02/03 03:07:05;;;;;;;6.30;5.90;;;24.10;1.00;;;;;;2612072;54;20423;-58
2024/02/03 03:09:31;;;;;;;6.40;6.00;;;24.10;1.00;;;;;;2613307;54;20241;-58
2024/02/03 03:11:56;;;;;;;6.27;5.87;;;24.10;1.00;;;;;;2612662;54;20183;-58
2024/02/03 03:14:22;;;;;;;6.17;5.77;;;24.10;1.00;;;;;;2612924;54;20176;-58
2024/02/03 03:16:49;;;;;;;5.97;5.67;;;24.10;1.00;;;;;;2613727;54;21082;-58
2024/02/03 03:19:15;;;;;;;6.00;5.70;;;24.10;1.00;;;;;;2611956;47;20172;-57
2024/02/03 03:21:41;;;;;;;6.30;5.90;;;24.10;1.00;;;;;;2612955;47;20411;-59
2024/02/03 03:24:07;;;;;;;5.80;5.50;;;24.10;1.00;;;;;;2612471;54;20169;-56
2024/02/03 03:26:32;;;;;;;6.17;5.77;;;24.10;1.00;;;;;;2612675;54;20154;-58
2024/02/03 03:28:58;;;;;;;5.80;5.50;;;24.00;1.00;;;;;;2613238;47;20161;-58
2024/02/03 03:31:24;;;;;;;6.20;5.80;;;24.00;1.00;;;;;;2613189;47;20174;-58
2024/02/03 03:33:49;;;;;;;5.57;5.27;;;24.00;1.00;;;;;;2612636;51;20165;-58
2024/02/03 03:36:15;;;;;;;5.47;5.17;;;24.00;1.00;;;;;;2612355;54;20142;-58
2024/02/03 03:38:44;;;;;;;6.17;5.77;;;24.00;1.00;;;;;;2613339;54;20197;-56
2024/02/03 03:41:10;;;;;;;6.47;6.07;;;24.00;1.00;;;;;;2612490;54;20162;-48
2024/02/03 03:43:36;;;;;;;5.80;5.40;;;23.90;1.00;;;;;;2612713;54;20411;-53
2024/02/03 03:46:02;;;;;;;5.73;5.40;;;23.90;1.00;;;;;;2613712;39;20922;-52
2024/02/03 03:48:28;;;;;;;5.93;5.60;;;24.00;1.00;;;;;;2613453;39;20818;-49
2024/02/03 03:50:54;;;;;;;4.90;4.60;;;23.90;1.00;;;;;;2612737;54;20453;-52
2024/02/03 03:53:19;;;;;;;5.90;5.50;;;23.90;1.00;;;;;;2611603;54;20157;-51
2024/02/03 03:55:45;;;;;;;6.07;5.70;;;23.90;1.00;;;;;;2613242;54;20152;-49
2024/02/03 03:58:11;;;;;;;5.37;5.07;;;23.90;1.00;;;;;;2613207;54;20146;-52
2024/02/03 04:00:36;;;;;;;6.03;5.53;;;23.90;1.00;;;;;;2613132;39;20625;-52
2024/02/03 04:03:03;;;;;;;6.00;5.60;;;23.90;1.00;;;;;;2613482;47;20271;-60
2024/02/03 04:05:29;;;;;;;5.50;5.20;;;23.90;1.00;;;;;;2612987;54;20176;-61
2024/02/03 04:07:55;;;;;;;6.10;5.70;;;23.80;1.00;;;;;;2612408;46;20464;-60
2024/02/03 04:10:20;;;;;;;5.77;5.37;;;23.80;1.00;;;;;;2612395;54;20184;-60
2024/02/03 04:12:46;;;;;;;5.40;5.10;;;23.80;1.00;;;;;;2611602;54;20696;-58
2024/02/03 04:15:12;;;;;;;5.90;5.50;;;23.80;1.00;;;;;;2613246;47;20200;-58
2024/02/03 04:17:37;;;;;;;5.87;5.47;;;23.80;1.00;;;;;;2612680;54;20224;-55
2024/02/03 04:20:04;;;;;;;5.63;5.30;;;23.80;1.00;;;;;;2613194;54;20743;-55
2024/02/03 04:22:29;;;;;;;5.60;5.27;;;23.80;1.00;;;;;;2613585;39;20588;-57
2024/02/03 04:24:55;;;;;;;5.40;5.10;;;23.80;1.00;;;;;;2612922;54;20540;-57
2024/02/03 04:27:21;;;;;;;5.30;5.00;;;23.70;1.00;;;;;;2611444;54;20163;-57
2024/02/03 04:29:46;;;;;;;5.10;4.80;;;23.80;1.00;;;;;;2613180;54;20158;-58
2024/02/03 04:32:12;;;;;;;4.93;4.63;;;23.80;1.00;;;;;;2612737;54;20166;-59
2024/02/03 04:34:40;;;;;;;5.40;5.00;;;23.80;1.00;;;;;;2612312;54;20140;-59
2024/02/03 04:37:07;;;;;;;5.87;5.47;;;23.80;1.00;;;;;;2613413;39;21159;-56
2024/02/03 04:39:33;;;;;;;5.37;5.07;;;23.80;1.00;;;;;;2612349;54;20957;-58
2024/02/03 04:41:58;;;;;;;5.50;5.10;;;23.70;1.00;;;;;;2611906;54;20414;-58
2024/02/03 04:44:24;;;;;;;5.30;5.00;;;23.70;1.00;;;;;;2612851;47;20287;-57
2024/02/03 04:46:50;;;;;;;6.33;5.90;;;23.70;1.00;;;;;;2613274;54;20197;-56
2024/02/03 04:49:15;;;;;;;5.53;5.23;;;23.70;1.00;;;;;;2612543;54;20438;-56
2024/02/03 04:51:41;;;;;;;5.07;4.77;;;23.70;1.00;;;;;;2612665;54;20160;-53
2024/02/03 04:54:07;;;;;;;5.07;4.77;;;23.70;1.00;;;;;;2610317;54;20260;-54
2024/02/03 04:56:32;;;;;;;4.40;4.20;;;23.70;1.00;;;;;;2612246;54;20185;-55
2024/02/03 04:58:58;;;;;;;5.20;4.80;;;23.70;1.00;;;;;;2612958;54;20196;-53
2024/02/03 05:01:24;;;;;;;4.77;4.30;;;23.70;1.00;;;;;;2613218;39;20576;-51
2024/02/03 05:03:49;;;;;;;4.73;4.43;;;23.60;1.00;;;;;;2612623;47;20192;-58
2024/02/03 05:06:22;;;;;;;6.53;5.17;;;23.60;1.00;;;;;;2612135;54;20201;-55
2024/02/03 05:08:47;;;;;;;7.03;5.50;;;23.70;1.00;;;;;;2612731;54;20613;-55
2024/02/03 05:11:13;;;;;;;4.93;4.63;;;23.70;1.00;;;;;;2613368;54;20531;-58
2024/02/03 05:13:39;;;;;;;4.37;4.07;;;23.60;1.00;;;;;;2612547;47;20251;-58
2024/02/03 05:16:04;;;;;;;5.10;4.70;;;23.60;1.00;;;;;;2612571;54;20170;-58
2024/02/03 05:18:30;;;;;;;4.80;4.40;;;23.70;1.00;;;;;;2613309;47;20168;-58
2024/02/03 05:20:56;;;;;;;4.77;4.37;;;23.60;1.00;;;;;;2613416;54;20158;-58
2024/02/03 05:23:21;;;;;;;4.23;3.93;;;23.60;1.00;;;;;;2611662;54;20145;-66
2024/02/03 05:25:47;;;;;;;6.83;4.70;;;23.60;1.00;;;;;;2613113;54;20160;-66
2024/02/03 05:28:13;;;;;;;4.47;4.07;;;23.60;1.00;;;;;;2612304;54;20154;-66
2024/02/03 05:30:38;;;;;;;7.47;5.20;;;23.60;1.00;;;;;;2612820;47;20205;-66
2024/02/03 05:33:04;;;;;;;4.47;4.17;;;23.60;1.00;;;;;;2613161;54;20185;-65
2024/02/03 05:35:30;;;;;;;5.63;5.27;;;23.50;1.00;;;;;;2612752;39;20586;-65
2024/02/03 05:37:56;;;;;;;4.40;4.10;;;23.50;1.00;;;;;;2613233;54;20397;-66
2024/02/03 05:40:22;;;;;;;5.60;5.10;;;23.50;1.00;;;;;;2612767;54;20151;-67
2024/02/03 05:42:48;;;;;;;5.43;5.03;;;23.50;1.00;;;;;;2612274;54;20162;-66
2024/02/03 05:45:14;;;;;;;4.10;3.80;;;23.50;1.00;;;;;;2612291;54;20411;-66
2024/02/03 05:47:40;;;;;;;4.30;3.90;;;23.60;1.00;;;;;;2613689;39;20836;-66
2024/02/03 05:50:06;;;;;;;5.13;4.60;;;23.50;1.00;;;;;;2612933;51;20439;-66
2024/02/03 05:52:32;;;;;;;4.77;4.37;;;23.50;1.00;;;;;;2612979;47;20176;-65
2024/02/03 05:54:57;;;;;;;7.20;5.00;;;23.50;1.00;;;;;;2612506;54;20955;-65
2024/02/03 05:57:23;;;;;;;4.60;4.20;;;23.50;1.00;;;;;;2613025;54;20161;-67
2024/02/03 05:59:49;;;;;;;4.60;4.20;;;23.50;1.00;;;;;;2612215;54;20166;-67
2024/02/03 06:02:15;;;;;;;4.40;4.10;;;23.50;1.00;;;;;;2613043;54;20171;-57
2024/02/03 06:04:41;;;;;;;4.70;4.30;;;23.50;1.00;;;;;;2612604;54;20153;-57
2024/02/03 06:07:06;;;;;;;5.43;5.07;;;23.50;1.00;;;;;;2612366;54;20154;-57
2024/02/03 06:09:32;;;;;;;5.00;4.70;;;23.40;1.00;;;;;;2613464;31;20638;-59
2024/02/03 06:11:58;;;;;;;4.60;4.20;;;23.40;1.00;;;;;;2612902;54;20305;-56
2024/02/03 06:14:24;;;;;;;6.87;4.53;;;23.40;1.00;;;;;;2612971;54;20161;-57
2024/02/03 06:16:50;;;;;;;4.27;3.87;;;23.40;1.00;;;;;;2612048;54;20980;-55
2024/02/03 06:19:16;;;;;;;4.37;4.07;;;23.40;1.00;;;;;;2613325;54;20441;-58
2024/02/03 06:21:42;;;;;;;4.20;3.90;;;23.40;1.00;;;;;;2613007;54;20167;-53
2024/02/03 06:24:09;;;;;;;4.33;4.03;;;23.40;1.00;;;;;;2612405;54;20412;-54
2024/02/03 06:26:34;;;;;;;4.50;4.27;;;23.40;1.00;;;;;;2612867;54;20153;-53
2024/02/03 06:29:00;;;;;;;4.50;4.20;;;23.40;1.00;;;;;;2612018;47;20451;-56
2024/02/03 06:31:25;;;;;;;3.80;3.57;;;23.40;1.00;;;;;;2613103;54;20181;-56
2024/02/03 06:33:51;;;;;;;3.97;3.70;;;23.40;1.00;;;;;;2611740;47;20730;-57
2024/02/03 06:36:17;;;;;;;4.23;3.93;;;23.40;1.00;;;;;;2612038;46;20172;-58
2024/02/03 06:38:42;;;;;;;4.40;3.73;;;23.40;1.00;;;;;;2612476;54;20200;-57
2024/02/03 06:41:10;;;;;;;4.93;4.53;;;23.40;1.00;;;;;;2612458;54;20171;-55
2024/02/03 06:43:40;;;;;;;4.80;4.40;;;23.30;1.00;;;;;;2613284;54;20180;-57
2024/02/03 06:46:07;;;;;;;4.97;4.57;;;23.30;1.00;;;;;;2613798;47;20431;-58
2024/02/03 06:48:32;;;;;;;4.57;4.27;;;23.30;1.00;;;;;;2612393;54;20491;-56
2024/02/03 06:50:58;;;;;;;5.23;4.47;;;23.40;1.00;;;;;;2613646;54;20400;-57
2024/02/03 06:53:24;;;;;;;4.77;4.20;;;23.30;1.00;;;;;;2613473;39;20648;-56
2024/02/03 06:55:49;;;;;;;4.50;4.20;;;23.30;1.00;;;;;;2613803;54;20151;-58
2024/02/03 06:58:15;;;;;;;4.00;3.80;;;23.30;1.00;;;;;;2613141;54;20184;-58
2024/02/03 07:00:41;;;;;;;3.70;3.50;;;23.30;1.00;;;;;;2612588;54;20151;-58
2024/02/03 07:03:06;;;;;;;3.80;3.53;;;23.30;1.00;;;;;;2613181;54;20634;-58
2024/02/03 07:05:32;;;;;;;4.23;3.93;;;23.30;1.00;;;;;;2613505;54;20262;-57
2024/02/03 07:07:57;;;;;;;4.17;3.87;;;23.30;1.00;;;;;;2613398;54;20681;-57
2024/02/03 07:10:23;;;;;;;4.10;3.87;;;23.30;1.00;;;;;;2612684;54;20148;-57
2024/02/03 07:12:50;;;;;;;11.40;4.60;;;23.30;1.00;;;;;;2612237;54;20160;-54
2024/02/03 07:15:15;;;;;;;4.53;4.10;;;23.30;1.00;;;;;;2612470;54;20152;-50
2024/02/03 07:17:41;;;;;;;4.57;4.17;;;23.30;1.00;;;;;;2612575;47;20427;-52
2024/02/03 07:20:07;;;;;;;4.80;4.50;;;23.30;1.00;;;;;;2613589;54;20680;-51
2024/02/03 07:22:33;;;;;;;4.43;4.03;;;23.30;1.00;;;;;;2613348;54;20168;-50
2024/02/03 07:24:58;;;;;;;4.13;3.90;;;23.30;1.00;;;;;;2614021;39;20809;-49
2024/02/03 07:27:24;;;;;;;3.77;3.57;;;23.30;1.00;;;;;;2612726;39;20584;-49
2024/02/03 07:29:50;;;;;;;4.37;3.97;;;23.30;1.00;;;;;;2613244;54;20160;-53
2024/02/03 07:32:15;;;;;;;4.67;4.37;;;23.20;1.00;;;;;;2613948;54;20166;-59
2024/02/03 07:34:44;;;;;;;4.70;4.33;;;23.30;1.00;;;;;;2613771;54;20140;-58
2024/02/03 07:37:09;;;;;;;4.60;4.30;;;23.20;1.00;;;;;;2612985;54;20151;-54
2024/02/03 07:39:38;;;;;;;4.87;4.57;;;23.20;1.00;;;;;;2613610;54;20458;-57
2024/02/03 07:42:04;;;;;;;4.73;4.43;;;23.20;1.00;;;;;;2612497;39;20632;-59
2024/02/03 07:44:31;;;;;;;4.23;4.03;;;23.20;1.00;;;;;;2613322;54;20397;-59
2024/02/03 07:46:57;;;;;;;4.63;4.33;;;23.30;1.00;;;;;;2613314;54;20445;-59
2024/02/03 07:49:23;;;;;;;4.60;4.30;;;23.20;1.00;;;;;;2612439;54;20474;-59
2024/02/03 07:51:49;;;;;;;4.90;4.60;;;23.40;1.00;;;;;;2613077;54;20944;-59
2024/02/03 07:54:14;;;;;;;4.57;4.27;;;23.50;1.00;;;;;;2612739;54;20183;-59
2024/02/03 07:56:40;;;;;;;4.90;4.60;;;23.50;1.00;;;;;;2612958;54;20140;-60
2024/02/03 07:59:06;;;;;;;6.40;6.00;;;23.60;1.00;;;;;;2611367;47;20258;-58
2024/02/03 08:01:31;;;;;;;4.37;4.07;;;23.90;1.00;;;;;;2613008;54;20155;-67
2024/02/03 08:03:57;;;;;;;5.00;4.70;;;24.10;1.00;;;;;;2612712;54;20178;-67
2024/02/03 08:06:23;;;;;;;4.37;4.07;;;24.00;1.00;;;;;;2613836;54;20157;-65
2024/02/03 08:08:48;;;;;;;5.90;5.47;;;23.90;1.00;;;;;;2613590;54;20163;-66
2024/02/03 08:11:14;;;;;;;5.80;4.93;;;23.70;1.00;;;;;;2613782;47;20169;-67
2024/02/03 08:13:39;;;;;;;5.60;5.20;;;23.60;1.00;;;;;;2614037;39;20500;-68
2024/02/03 08:16:07;;;;;;;5.13;4.83;;;23.50;1.00;;;;;;2613478;54;20142;-67
2024/02/03 08:18:33;;;;;;;5.40;4.90;;;23.40;1.00;;;;;;2613755;54;20706;-67
2024/02/03 08:20:59;;;;;;;4.70;4.30;;;23.30;1.00;;;;;;2613264;54;20438;-53
2024/02/03 08:23:25;;;;;;;4.80;4.40;;;23.40;1.00;;;;;;2612514;39;20896;-54
2024/02/03 08:25:50;;;;;;;19.77;8.00;;;23.40;1.00;;;;;;2613137;47;20158;-52
2024/02/03 08:28:16;;;;;;;17.93;7.10;;;23.20;1.00;;;;;;2612385;54;20244;-50
2024/02/03 08:30:42;;;;;;;13.83;9.47;;;23.20;1.00;;;;;;2610698;54;20146;-57
2024/02/03 08:33:07;;;;;;;16.50;8.70;;;23.20;1.00;;;;;;2613320;54;20272;-58
2024/02/03 08:35:33;;;;;;;20.60;9.00;;;23.20;1.00;;;;;;2613759;54;21013;-58
2024/02/03 08:37:59;;;;;;;9.10;8.20;;;23.20;1.00;;;;;;2613836;54;20157;-58
2024/02/03 08:40:24;;;;;;;14.40;8.83;;;23.20;1.00;;;;;;2612003;54;20166;-57
2024/02/03 08:42:50;;;;;;;10.97;7.33;;;23.20;1.00;;;;;;2613504;54;20170;-72
2024/02/03 08:45:16;;;;;;;10.30;8.00;;;23.20;1.00;;;;;;2614459;54;20176;-73
2024/02/03 08:47:42;;;;;;;8.87;7.13;;;23.20;1.00;;;;;;2612482;54;20825;-72
2024/02/03 08:50:08;;;;;;;13.20;7.70;;;23.20;1.00;;;;;;2613416;54;20419;-72
2024/02/03 08:52:34;;;;;;;20.90;8.40;;;23.10;1.00;;;;;;2614020;54;20520;-60
2024/02/03 08:55:00;;;;;;;11.90;7.80;;;23.10;1.00;;;;;;2613406;47;20423;-60
2024/02/03 08:57:26;;;;;;;9.40;7.20;;;23.10;1.00;;;;;;2613374;47;20414;-60
2024/02/03 08:59:52;;;;;;;7.50;6.17;;;23.10;1.00;;;;;;2610440;54;20146;-60
2024/02/03 09:02:17;;;;;;;13.60;7.23;;;23.10;1.00;;;;;;2609394;54;20566;-60
2024/02/03 09:04:43;;;;;;;7.37;6.83;;;23.10;1.00;;;;;;2609623;54;20147;-60
2024/02/03 09:07:08;;;;;;;11.20;6.37;;;23.10;1.00;;;;;;2609634;47;20170;-60
2024/02/03 09:09:34;;;;;;;10.17;6.80;;;23.10;1.00;;;;;;2610056;50;20169;-59
2024/02/03 09:12:01;;;;;;;6.93;5.90;;;23.10;1.00;;;;;;2610774;54;20157;-59
2024/02/03 09:14:27;;;;;;;10.70;6.87;;;23.10;1.00;;;;;;2613155;54;20181;-60
2024/02/03 09:16:52;;;;;;;7.23;6.37;;;23.10;1.00;;;;;;2611595;39;20744;-60
2024/02/03 09:19:18;;;;;;;7.60;6.20;;;23.00;1.00;;;;;;2610029;54;21917;-60
2024/02/03 09:21:44;;;;;;;9.10;6.40;;;23.00;1.00;;;;;;2609687;54;20220;-59
2024/02/03 09:24:09;;;;;;;7.53;5.93;;;23.00;1.00;;;;;;2609382;54;20655;-60
2024/02/03 09:26:41;;;;;;;7.63;6.93;;;23.00;1.00;;;;;;2609916;47;20201;-59
2024/02/03 09:29:07;;;;;;;6.37;5.97;;;23.00;1.00;;;;;;2612480;54;20226;-60
2024/02/03 09:31:34;;;;;;;6.10;5.70;;;23.00;1.00;;;;;;2610793;47;20429;-60
2024/02/03 09:34:03;;;;;;;7.60;5.73;;;23.00;1.00;;;;;;2609530;54;20163;-60
2024/02/03 09:36:29;;;;;;;7.87;6.30;;;23.00;1.00;;;;;;2609391;54;20469;-60
2024/02/03 09:38:55;;;;;;;9.50;6.20;;;23.00;1.00;;;;;;2609760;54;20429;-60
2024/02/03 09:41:21;;;;;;;11.40;5.57;;;23.00;1.00;;;;;;2609581;54;20395;-61
2024/02/03 09:43:48;;;;;;;7.70;5.80;;;23.00;1.00;;;;;;2609700;39;20406;-59
2024/02/03 09:46:14;;;;;;;6.53;5.77;;;22.90;1.00;;;;;;2612948;54;20397;-60
2024/02/03 09:48:39;;;;;;;5.87;5.47;;;22.90;1.00;;;;;;2609410;54;20432;-60
2024/02/03 09:51:06;;;;;;;7.50;6.33;;;22.90;1.00;;;;;;2609798;39;20806;-60
2024/02/03 09:53:32;;;;;;;7.40;6.70;;;22.90;1.00;;;;;;2609588;54;20164;-60
2024/02/03 09:55:58;;;;;;;8.93;5.93;;;22.90;1.00;;;;;;2609877;54;20458;-60
2024/02/03 09:58:24;;;;;;;6.70;6.20;;;22.90;1.00;;;;;;2608477;54;21027;-60
2024/02/03 10:00:54;;;;;;;10.63;9.83;;;22.90;1.00;;;;;;2608478;54;20155;-60
2024/02/03 10:03:20;;;;;;;11.30;10.40;;;22.00;1.00;;;;;;2608880;54;20401;-62
2024/02/03 10:05:46;;;;;;;8.47;7.87;;;21.20;1.00;;;;;;2609973;54;20167;-59
2024/02/03 10:08:11;;;;;;;7.70;7.00;;;21.60;1.00;;;;;;2609630;54;20457;-60
2024/02/03 10:10:38;;;;;;;7.63;6.93;;;22.00;1.00;;;;;;2609512;47;22451;-59
2024/02/03 10:13:07;;;;;;;7.30;6.60;;;22.30;1.00;;;;;;2609068;54;20285;-60
2024/02/03 10:15:33;;;;;;;9.27;8.47;;;22.50;1.00;;;;;;2608653;54;20430;-58
2024/02/03 10:17:59;;;;;;;10.80;10.10;;;22.80;1.00;;;;;;2610313;54;20399;-59
2024/02/03 10:20:28;;;;;;;10.73;10.07;;;23.00;1.00;;;;;;2610777;54;20390;-54
2024/02/03 10:22:54;;;;;;;10.27;9.60;;;23.30;1.00;;;;;;2610003;54;20171;-52
2024/02/03 10:25:29;;;;;;;10.10;9.60;;;23.50;1.00;;;;;;2610337;54;20405;-54
2024/02/03 10:28:08;;;;;;;10.17;9.57;;;23.60;1.00;;;;;;2610407;47;20429;-55
2024/02/03 10:30:38;;;;;;;9.70;9.03;;;23.80;1.00;;;;;;2612147;54;20995;-53
2024/02/03 10:33:05;;;;;;;10.53;9.53;;;23.90;1.00;;;;;;2611759;54;20428;-55
2024/02/03 10:35:36;;;;;;;5.10;4.57;;;24.00;1.00;;;;;;2611547;54;20510;-58
2024/02/03 10:38:02;;;;;;;5.07;4.77;;;23.70;1.00;;;;;;2611277;54;20977;-60
2024/02/03 10:40:31;;;;;;;5.67;5.10;;;23.40;1.00;;;;;;2610794;54;20401;-59
2024/02/03 10:42:58;;;;;;;5.20;4.80;;;23.30;1.00;;;;;;2612221;51;20166;-53
2024/02/03 10:45:28;;;;;;;4.23;3.93;;;23.20;1.00;;;;;;2610320;54;20396;-54
2024/02/03 10:47:57;;;;;;;5.63;5.10;;;23.20;1.00;;;;;;2613312;54;20452;-53
2024/02/03 10:50:39;;;;;;;5.40;4.90;;;23.20;1.00;;;;;;2610998;54;20432;-51
2024/02/03 10:53:18;;;;;;;4.57;4.20;;;23.10;1.00;;;;;;2610025;54;20445;-52
2024/02/03 10:55:54;;;;;;;5.70;4.30;;;23.10;1.00;;;;;;2610420;50;20426;-54
2024/02/03 10:58:26;;;;;;;8.20;6.10;;;23.20;1.00;;;;;;2609767;47;20463;-52
2024/02/03 11:00:53;;;;;;;10.93;9.90;;;23.40;1.00;;;;;;2609811;54;20519;-53
2024/02/03 11:03:21;;;;;;;10.10;9.40;;;23.60;1.00;;;;;;2610466;54;20542;-49
2024/02/03 11:05:47;;;;;;;7.00;5.17;;;23.80;1.00;;;;;;2610398;54;20448;-49
2024/02/03 11:08:13;;;;;;;16.13;6.73;;;23.70;1.00;;;;;;2611893;51;20516;-52
2024/02/03 11:10:40;;;;;;;12.10;5.40;;;23.60;1.00;;;;;;2612230;54;20428;-48
2024/02/03 11:13:27;;;;;;;6.67;4.70;;;23.50;1.00;;;;;;2612937;54;20982;-52
2024/02/03 11:16:00;;;;;;;4.97;4.27;;;23.40;1.00;;;;;;2612584;47;20430;-51
2024/02/03 11:18:27;;;;;;;5.73;4.50;;;23.30;1.00;;;;;;2612914;54;20439;-52
2024/02/03 11:21:10;;;;;;;8.20;5.20;;;23.00;1.00;;;;;;2613743;54;20448;-53
2024/02/03 11:23:36;;;;;;;7.90;5.00;;;22.80;1.00;;;;;;2612972;54;20428;-53
2024/02/03 11:26:01;;;;;;;10.80;9.80;;;22.80;1.00;;;;;;2611950;54;20424;-53
2024/02/03 11:28:34;;;;;;;11.80;11.10;;;23.00;1.00;;;;;;2612995;54;20158;-51
2024/02/03 11:31:01;;;;;;;4.90;4.40;;;23.20;1.00;;;;;;2612988;54;20154;-52
2024/02/03 11:33:29;;;;;;;8.30;4.97;;;23.30;1.00;;;;;;2613036;54;20423;-54
2024/02/03 11:35:59;;;;;;;5.10;4.57;;;23.30;1.00;;;;;;2613428;54;20426;-51
2024/02/03 11:38:24;;;;;;;4.83;4.43;;;23.30;1.00;;;;;;2611896;54;20435;-49
2024/02/03 11:40:54;;;;;;;5.30;4.50;;;23.20;1.00;;;;;;2611342;54;20420;-51
2024/02/03 11:43:19;;;;;;;8.30;5.30;;;23.20;1.00;;;;;;2612246;54;20282;-50
2024/02/03 11:45:45;;;;;;;5.60;4.50;;;23.30;1.00;;;;;;2610124;54;20409;-60
2024/02/03 11:48:12;;;;;;;6.00;4.40;;;23.40;1.00;;;;;;2613623;54;20182;-61
2024/02/03 11:50:39;;;;;;;5.03;4.20;;;23.40;1.00;;;;;;2609699;39;20963;-61
2024/02/03 11:53:05;;;;;;;4.67;4.20;;;23.30;1.00;;;;;;2609928;54;20437;-61
2024/02/03 11:55:30;;;;;;;8.67;4.10;;;23.20;1.00;;;;;;2609600;47;20995;-61
2024/02/03 11:57:56;;;;;;;4.73;4.23;;;23.20;1.00;;;;;;2611403;47;20190;-61
2024/02/03 12:00:22;;;;;;;12.13;5.63;;;23.20;1.00;;;;;;2610689;54;20155;-62
2024/02/03 12:02:48;;;;;;;7.20;4.00;;;23.30;1.00;;;;;;2608199;54;20158;-61
2024/02/03 12:05:14;;;;;;;4.57;4.17;;;23.30;1.00;;;;;;2609044;54;20423;-62
2024/02/03 12:07:41;;;;;;;8.73;4.27;;;23.40;1.00;;;;;;2610548;39;20571;-62
2024/02/03 12:10:09;;;;;;;10.70;6.20;;;23.30;1.00;;;;;;2610005;39;20760;-61
2024/02/03 12:12:37;;;;;;;13.13;5.30;;;22.60;1.00;;;;;;2608894;54;20409;-62
2024/02/03 12:15:06;;;;;;;5.33;4.83;;;22.60;1.00;;;;;;2610914;39;20810;-61
2024/02/03 12:17:33;;;;;;;6.03;4.20;;;22.70;1.00;;;;;;2609481;39;20781;-63
2024/02/03 12:19:59;;;;;;;7.13;4.70;;;22.90;1.00;;;;;;2609692;54;20493;-63
2024/02/03 12:22:25;;;;;;;6.13;4.83;;;23.00;1.00;;;;;;2609703;54;20413;-59
2024/02/03 12:24:51;;;;;;;6.50;4.10;;;23.10;1.00;;;;;;2610039;54;20415;-57
2024/02/03 12:27:17;;;;;;;5.47;4.20;;;23.20;1.00;;;;;;2610253;39;20531;-58
2024/02/03 12:29:43;;;;;;;8.00;4.97;;;23.10;1.00;;;;;;2612379;54;20412;-58
2024/02/03 12:32:08;;;;;;;5.77;4.33;;;23.20;1.00;;;;;;2612618;54;20284;-58
2024/02/03 12:34:34;;;;;;;4.63;3.20;;;23.20;1.00;;;;;;2612496;54;20151;-57
2024/02/03 12:36:59;;;;;;;4.33;3.97;;;23.20;1.00;;;;;;2613268;54;20149;-60
2024/02/03 12:39:25;;;;;;;4.47;2.90;;;23.30;1.00;;;;;;2613339;54;20163;-58
2024/02/03 12:41:51;;;;;;;4.30;3.90;;;23.30;1.00;;;;;;2612772;47;20177;-58
2024/02/03 12:44:16;;;;;;;4.43;3.90;;;23.20;1.00;;;;;;2612569;54;20247;-58
2024/02/03 12:46:42;;;;;;;3.73;3.43;;;23.20;1.00;;;;;;2612815;54;20150;-58
2024/02/03 12:49:08;;;;;;;4.80;4.40;;;23.20;1.00;;;;;;2611343;47;20574;-58
2024/02/03 12:51:34;;;;;;;4.13;3.70;;;23.10;1.00;;;;;;2613070;39;20750;-58